x

Naubinway, Mi (nabm4) Weather Station

12:08am - Fri 28th Nov 2014 All times are CST. -6 hours from GMT.

  • Wind
    8mph, 14mph gusts
  • Air Temp 9°f
  • Sea Pressure 1024.4mb
  • Naubinway, Mi
  • Naubinway, Mi

More Historic Weather Station data

Upgrade to MSW Pro to gain access to the past 30 days of data for over 8000 Wavebouys and Weather Stations around the globe.

Join Pro

Comparision Forecast

View Surf forecast
   
Fri 11/28 12:08am 8 14 mph 1024.4mb 9f
Thu 11/27 11:40pm 9 14 mph 1024.4mb 9f
11:30pm 9 14 mph 1024.4mb 9f
11:20pm 8 13 mph 1024.4mb 9f
11:10pm 8 11 mph 1024.4mb 9f
11:08pm 8 11 mph 1024.4mb 9f
11:00pm 8 11 mph 1024.4mb 9f
10:40pm 6 10 mph 1024mb 8f
10:30pm 7 9 mph 1024mb 8f
10:20pm 7 10 mph 1024mb 9f
10:10pm 7 8 mph 1024.4mb 9f
10:07pm 6 14 mph 1024.4mb 10f
10:00pm 5 11 mph 1024.7mb 10f
9:40pm 9 13 mph 1025.1mb 11f
9:30pm 7 14 mph 1025.1mb 11f
9:20pm 7 13 mph 1025.1mb 11f
9:10pm 6 8 mph 1025.1mb 11f
9:07pm 6 10 mph 1025.1mb 11f
9:00pm 6 8 mph 1025.1mb 11f
8:40pm 6 8 mph 1024.7mb 10f
8:30pm 6 10 mph 1024.7mb 11f
8:20pm 6 9 mph 1024.7mb 11f
8:10pm 5 7 mph 1024.7mb 11f
8:06pm 5 8 mph 1024.7mb 11f
8:00pm 5 8 mph 1024.7mb 11f
7:40pm 6 7 mph 1024.4mb 11f
7:30pm 5 6 mph 1024.4mb 11f
7:20pm 5 6 mph 1024.4mb 11f
7:10pm 5 7 mph 1024.4mb 11f
7:06pm 6 9 mph 1024.4mb 11f
7:00pm 5 6 mph 1024.4mb 11f
6:40pm 6 7 mph 1024.4mb 11f
6:30pm 6 8 mph 1024.4mb 11f
6:20pm 6 9 mph 1024.4mb 12f
6:10pm 7 9 mph 1024.4mb 11f
6:06pm 7 9 mph 1024.4mb 12f
6:00pm 6 8 mph 1024.7mb 12f
5:40pm 7 9 mph 1024.7mb 12f
5:30pm 6 8 mph 1024.4mb 12f
5:20pm 5 6 mph 1024.4mb 12f
5:10pm 5 7 mph 1024.4mb 13f
5:05pm 5 9 mph 1024.4mb 13f
5:00pm 5 7 mph 1024.4mb 13f
4:40pm 6 9 mph 1024.4mb 14f
4:30pm 6 8 mph 1024.4mb 14f
4:20pm 6 9 mph 1024.4mb 15f
4:10pm 6 9 mph 1024.4mb 15f
4:05pm 7 20 mph 1032.5mb 15f
4:00pm 8 11 mph 1024.4mb 15f
3:40pm 9 14 mph 1024mb 16f
3:30pm 11 20 mph 1024mb 16f
3:20pm 11 17 mph 1023.7mb 17f
3:10pm 13 17 mph 1023.4mb 17f
3:04pm 10 22 mph 1023.4mb 17f
3:00pm 9 17 mph 1023.4mb 17f
2:40pm 11 18 mph 1023.4mb 19f
2:30pm 14 21 mph 1023mb 19f
2:20pm 16 22 mph 1023mb 19f
2:10pm 14 22 mph 1022.7mb 19f
2:04pm 15 23 mph 1022.7mb 19f
2:00pm 11 23 mph 1022.7mb 19f
1:40pm 15 22 mph 1022.7mb 20f
1:30pm 9 18 mph 1022.7mb 20f
1:20pm 15 23 mph 1022.7mb 20f
1:10pm 14 23 mph 1022.7mb 19f
1:04pm 16 25 mph 1022.7mb 20f
1:00pm 17 24 mph 1022.4mb 20f
12:40pm 18 25 mph 1022.4mb 20f
12:30pm 17 24 mph 1022.4mb 20f
12:20pm 13 20 mph 1022.7mb 20f
12:10pm 13 20 mph 1022.7mb 20f
12:03pm 14 26 mph 1022.4mb 19f
12:00pm 15 22 mph 1022.7mb 19f
11:40am 11 20 mph 1022.4mb 20f
11:30am 14 26 mph 1022.7mb 19f
11:20am 15 23 mph 1022.4mb 20f
11:10am 15 26 mph 1022.4mb 19f
11:03am 14 26 mph 1022.7mb 20f
11:00am 14 20 mph 1022.7mb 20f
10:40am 10 16 mph 1022.7mb 19f
10:30am 15 21 mph 1022.7mb 18f
10:20am 15 20 mph 1022.7mb 19f
10:10am 14 16 mph 1023mb 20f
10:02am 10 20 mph 1023mb 19f
10:00am 8 20 mph 1023mb 19f
9:40am 11 15 mph 1023mb 20f
9:30am 10 20 mph 1023mb 20f
9:20am 13 18 mph 1022.7mb 19f
9:10am 13 18 mph 1022.4mb 19f
9:02am 11 17 mph 1022.7mb 19f
9:00am 9 13 mph 1022.4mb 19f
8:40am 7 11 mph 1022.4mb 19f
8:30am 8 14 mph 1022.4mb 18f
8:20am 6 13 mph 1022.4mb 17f
8:10am 9 13 mph 1022.4mb 17f
8:02am 9 16 mph 1022mb 18f
8:00am 10 16 mph 1022mb 18f
7:40am 9 16 mph 1021.7mb 18f
7:30am 9 15 mph 1021.7mb 18f
7:20am 9 14 mph 1021.7mb 18f
7:10am 8 13 mph 1021.7mb 18f
7:01am 9 16 mph 1021.7mb 18f
7:00am 9 14 mph 1021.7mb 18f
6:40am 10 14 mph 1021.3mb 19f
6:30am 8 13 mph 1021.3mb 19f
6:20am 8 13 mph 1021.3mb 19f
6:10am 10 15 mph 1021.3mb 19f
6:01am 8 20 mph 1021mb 19f
6:00am 8 16 mph 1021mb 19f
5:40am 9 17 mph 1021mb 20f
5:30am 13 16 mph 1021mb 20f
5:20am 11 16 mph 1021mb 20f
5:10am 15 20 mph 1020.7mb 20f
5:00am 11 17 mph 1020.7mb 21f
4:40am 15 20 mph 1020.7mb 21f
4:30am 16 22 mph 1020.7mb 22f
4:20am 15 21 mph 1020.7mb 22f
4:10am 15 24 mph 1020.7mb 22f
4:00am 16 24 mph 1020.3mb 22f
3:40am 16 24 mph 1020.3mb 22f
3:30am 16 22 mph 1020.3mb 22f
3:20am 16 24 mph 1020.3mb 23f
3:10am 14 22 mph 1020.3mb 23f
3:00am 10 17 mph 1020.3mb 24f
2:40am 9 15 mph 1020mb 24f
2:30am 9 13 mph 1020mb 23f
2:20am 9 11 mph 1020mb 23f
2:10am 8 10 mph 1020mb 22f
2:00am 7 10 mph 1020mb 22f
1:40am 6 9 mph 1020mb 22f
1:30am 7 9 mph 1020mb 22f
1:20am 7 10 mph 1019.6mb 22f
1:10am 8 13 mph 1019.6mb 22f
1:00am 9 13 mph 1019.6mb 22f
12:50am 8 11 mph 1019.6mb 22f
12:40am 7 9 mph 1019.6mb 22f
12:30am 6 7 mph 1019.6mb 22f
12:20am 5 9 mph 1019.6mb 23f
12:10am 6 8 mph 1019.3mb 23f
12:00am 5 8 mph 1019.3mb 23f
Wed 11/26 11:50pm 5 6 mph 1019.3mb 23f
11:40pm 3 6 mph 1019.3mb 23f
11:30pm 6 7 mph 1019.3mb 23f
11:20pm 5 6 mph 1019.3mb 23f
11:10pm 5 6 mph 1019.3mb 23f
11:00pm 5 7 mph 1019.3mb 23f
10:50pm 6 8 mph 1019.3mb 23f
10:40pm 7 9 mph 1019.3mb 23f
10:30pm 7 8 mph 1019.3mb 23f
10:23pm 7 9 mph 1019mb 23f
10:20pm 7 9 mph 1019mb 23f
10:10pm 7 9 mph 1019mb 23f
10:00pm 7 9 mph 1019mb 23f
9:50pm 7 9 mph 1019mb 23f
9:40pm 7 9 mph 1019.3mb 24f
9:30pm 6 7 mph 1019.3mb 24f
9:23pm 6 7 mph 1019.3mb 24f
9:20pm 5 7 mph 1019.3mb 24f
9:10pm 6
mph
1019.3mb 24f
9:00pm 6 7 mph 1019.6mb 24f
8:50pm 5 7 mph 1019.3mb 24f
8:40pm 5 7 mph 1019.6mb 24f
8:30pm 6 7 mph 1019.3mb 24f
8:22pm 5 7 mph 1019.3mb 24f
8:20pm 6 7 mph 1019.3mb 24f
8:10pm 5 6 mph 1019.3mb 24f
8:00pm 5
mph
1019.3mb 25f
7:50pm 2 3 mph 1019.3mb 26f
7:40pm 2 5 mph 1019.3mb 26f
7:30pm 3 6 mph 1019.3mb 26f
7:22pm 5 7 mph 1019.3mb 26f
7:20pm 5 6 mph 1019.3mb 26f
7:10pm 5 7 mph 1019.6mb 26f
7:00pm 6 7 mph 1019.3mb 26f
6:50pm 3 5 mph 1019.6mb 26f
6:40pm 3 5 mph 1019.6mb 26f
6:30pm 3
mph
1019.6mb 26f
6:21pm 3 7 mph 1019.6mb 26f
6:20pm 3 5 mph 1019.6mb 26f
6:10pm 3
mph
1019.6mb 26f
6:00pm 3 5 mph 1020mb 27f
5:50pm 3 5 mph 1020mb 27f
5:40pm 3 5 mph 1020mb 27f
5:30pm 3 7 mph 1020mb 27f
5:21pm 6 9 mph 1020mb 27f
5:20pm 6 8 mph 1020mb 27f
5:10pm 6 9 mph 1020.3mb 27f
5:00pm 6 7 mph 1020.3mb 28f
4:50pm 7 8 mph 1020.3mb 28f
4:40pm 7 8 mph 1020.3mb 28f
4:30pm 7 8 mph 1020.3mb 28f
4:21pm 5 7 mph 1020.3mb 28f
4:20pm 5 6 mph 1020.3mb 28f
4:10pm 3 6 mph 1020.3mb 28f
4:00pm 5
mph
1020.3mb 28f
3:50pm 2 3 mph 1020.3mb 28f
3:40pm 2 6 mph 1020.3mb 28f
3:30pm 3 6 mph 1020.3mb 28f
3:20pm 5 11 mph 1020mb 28f
3:10pm 7 9 mph 1020mb 28f
3:00pm 6 9 mph 1019.6mb 28f
2:50pm 6 10 mph 1020mb 28f
2:40pm 8 10 mph 1020mb 29f
2:30pm 9 11 mph 1019.6mb 29f
2:20pm 9 15 mph 1019.6mb 29f
2:10pm 10 13 mph 1020mb 29f
2:00pm 9 13 mph 1020mb 29f
1:50pm 10 13 mph 1020mb 29f
1:40pm 10 14 mph 1019.6mb 29f
1:30pm 11 15 mph 1019.6mb 29f
1:20pm 11 16 mph 1020mb 29f
1:19pm 13 24 mph 1020mb 29f
1:10pm 13 16 mph 1019.6mb 29f
1:00pm 14 17 mph 1020mb 29f
12:50pm 15 18 mph 1020mb 29f
12:40pm 16 21 mph 1020mb 29f
12:30pm 17 24 mph 1020mb 29f
12:20pm 20 23 mph 1020mb 29f
12:19pm 21 26 mph 1020mb 29f
12:10pm 21 23 mph 1020mb 29f
12:00pm 21 23 mph 1020.3mb 29f
11:50am 18 24 mph 1020mb 29f
11:40am 21 24 mph 1020mb 29f
11:30am 22 26 mph 1020mb 29f
11:20am 22 25 mph 1020mb 29f
11:19am 22 26 mph 1020.3mb 29f
11:10am 23 26 mph 1020.3mb 29f
11:00am 22 26 mph 1020.3mb 29f
10:50am 20 24 mph 1020.3mb 29f
10:40am 22 24 mph 1020.3mb 29f
10:30am 21 24 mph 1020.3mb 29f
10:20am 22 25 mph 1020.7mb 29f
10:18am 23 28 mph 1020.7mb 29f
10:10am 22 25 mph 1020.3mb 29f
10:00am 25 28 mph 1020.7mb 29f
9:50am 15 21 mph 1020.3mb 27f
9:40am 14 18 mph 1020.3mb 26f
9:30am 14 17 mph 1020.3mb 26f
9:20am 13 16 mph 1020.3mb 25f
9:18am 13 16 mph 1020.3mb 25f
9:10am 14 15 mph 1020.3mb 25f
9:00am 13 15 mph 1020.3mb 25f
8:50am 13 16 mph 1020.3mb 26f
8:40am 13 16 mph 1020.3mb 26f
8:30am 13 16 mph 1020.3mb 25f
8:20am 13 16 mph 1020.3mb 25f
8:17am 14 17 mph 1020.7mb 26f
8:10am 15 17 mph 1020.3mb 26f
8:00am 14 15 mph 1020mb 25f
7:50am 8 14 mph 1020.3mb 24f
7:40am 10
mph
1020mb 23f
7:30am 8 9 mph 1020.3mb 22f
7:20am 8 10 mph 1020mb 22f
7:17am 8 10 mph 1020.3mb 22f
7:10am 8 9 mph 1020.3mb 22f
7:00am 8 9 mph 1020.3mb 22f
6:50am 7 9 mph 1020.3mb 22f
6:40am 6 8 mph 1020.3mb 21f
6:30am 6 7 mph 1020.3mb 21f
6:20am 6 7 mph 1020mb 21f
6:17am 6 10 mph 1020mb 21f
6:10am 6 7 mph 1020mb 21f
6:00am 6 7 mph 1020mb 21f
5:50am 6 7 mph 1020mb 21f
5:40am 6 7 mph 1020mb 22f
5:30am 7 9 mph 1020mb 23f
5:20am 8 10 mph 1020mb 24f
5:16am 9 11 mph 1020mb 24f
5:10am 9 10 mph 1020.3mb 24f
5:00am 9 11 mph 1020.3mb 24f
4:50am 9 11 mph 1020.3mb 24f
4:40am 9 10 mph 1020.3mb 24f
4:30am 9 11 mph 1020.3mb 25f
4:20am 5 9 mph 1020.3mb 24f
4:16am 6 9 mph 1020.7mb 23f
4:10am 6
mph
1020.7mb 22f
4:00am 2 6 mph 1020.7mb 21f
3:50am 5 6 mph 1020.3mb 21f
3:40am 2 5 mph 1020.7mb 21f
3:30am 3 6 mph 1020.7mb 21f
3:20am 5 6 mph 1020.7mb 21f
3:15am 5 6 mph 1020.7mb 21f
3:10am 3 5 mph 1020.7mb 21f
3:00am 3 5 mph 1020.7mb 22f
2:50am 3 5 mph 1021mb 22f
2:40am 5 6 mph 1021mb 22f
2:30am 3 6 mph 1021mb 22f
2:20am 3 6 mph 1021mb 21f
2:15am 3 6 mph 1021mb 21f
2:10am 3 5 mph 1021mb 21f
2:00am 3 5 mph 1021mb 21f
1:50am 3 5 mph 1021mb 21f
1:40am 3 6 mph 1021mb 22f
1:30am 5 6 mph 1021mb 22f
1:20am 3 6 mph 1021mb 22f
1:15am 5 6 mph 1021mb 22f
1:10am 5 6 mph 1021mb 21f
1:00am 5 6 mph 1020.7mb 21f
12:50am 5 6 mph 1020.7mb 21f
12:40am 5 6 mph 1020.7mb 21f
12:30am 5 6 mph 1020.7mb 21f
12:20am 3 6 mph 1020.7mb 21f
12:14am 5 8 mph 1020.7mb 21f
12:10am 5 6 mph 1020.7mb 21f
12:00am 5 7 mph 1020.3mb 21f
Tue 11/25 11:50pm 6 7 mph 1020.3mb 21f
11:40pm 5 6 mph 1020.3mb 22f
11:30pm 6 8 mph 1020.3mb 22f
11:20pm 6 7 mph 1020.3mb 22f
11:14pm 5 9 mph 1020.3mb 22f
11:10pm 7 8 mph 1020.3mb 22f
11:00pm 7 9 mph 1020mb 22f
10:50pm 7 8 mph 1020mb 22f
10:40pm 7 8 mph 1019.6mb 23f
10:30pm 6 9 mph 1020mb 23f
10:20pm 7 8 mph 1019.6mb 23f
10:13pm 7 10 mph 1019.6mb 23f
10:10pm 7 8 mph 1019.6mb 23f
10:00pm 7 9 mph 1019.6mb 24f
9:50pm 7 10 mph 1019.6mb 23f
9:40pm 7 9 mph 1019.3mb 24f
9:30pm 7 10 mph 1019mb 24f
9:20pm 8 10 mph 1019mb 24f
9:13pm 6 9 mph 1019mb 24f
9:10pm 7 9 mph 1019mb 24f
9:00pm 7 9 mph 1018.6mb 24f
8:50pm 6 8 mph 1018.6mb 24f
8:40pm 6 9 mph 1018.6mb 24f
8:30pm 6 9 mph 1018.6mb 25f
8:20pm 6 9 mph 1018.3mb 25f
8:13pm 6 13 mph 1018.3mb 25f
8:10pm 6 10 mph 1018.3mb 25f
8:00pm 7 10 mph 1017.9mb 25f
7:50pm 6 10 mph 1018.3mb 25f
7:40pm 6 11 mph 1017.9mb 25f
7:30pm 8 10 mph 1017.9mb 25f
7:20pm 7 13 mph 1017.6mb 26f
7:12pm 7 14 mph 1017.9mb 26f
7:10pm 7 13 mph 1017.6mb 26f
7:00pm 9 13 mph 1017.6mb 26f
6:50pm 7 11 mph 1017.6mb 26f
6:40pm 6 13 mph 1017.6mb 26f
6:30pm 8 14 mph 1017.3mb 26f
6:20pm 7 13 mph 1017.3mb 26f
6:10pm 8 13 mph 1016.9mb 26f
6:00pm 9 14 mph 1016.9mb 26f
5:50pm 6 10 mph 1016.6mb 25f
5:40pm 6 9 mph 1016.6mb 25f
5:30pm 3 7 mph 1016.6mb 25f
5:20pm 5 7 mph 1016.3mb 25f
5:11pm 3 8 mph 1016.3mb 25f
5:10pm 3 6 mph 1016.6mb 25f
5:00pm 3 7 mph 1016.3mb 25f
4:50pm 3 6 mph 1016.3mb 25f
4:40pm 5 8 mph 1016.3mb 25f
4:30pm 5 7 mph 1015.9mb 26f
4:20pm 5 7 mph 1015.6mb 26f
4:10pm 6 11 mph 1015.6mb 26f
4:00pm 6 8 mph 1015.6mb 26f
3:50pm 5 9 mph 1015.2mb 26f
3:40pm 6 13 mph 1014.9mb 26f
3:30pm 7 11 mph 1014.9mb 26f
3:20pm 8 11 mph 1014.9mb 26f
3:10pm 9 15 mph 1014.6mb 27f
3:00pm 10 14 mph 1014.6mb 27f
2:50pm 7 11 mph 1014.2mb 27f
2:40pm 8 13 mph 1013.9mb 27f
2:30pm 9 14 mph 1013.5mb 28f
2:20pm 8 15 mph 1013.5mb 28f
2:10pm 7 17 mph 1013.2mb 27f
2:00pm 11 17 mph 1012.9mb 27f
1:50pm 10 16 mph 1012.9mb 27f
1:40pm 9 15 mph 1012.5mb 27f
1:30pm 9 14 mph 1012.2mb 28f
1:20pm 13 21 mph 1012.2mb 28f
1:10pm 14 22 mph 1011.9mb 29f
1:00pm 10 16 mph 1011.9mb 28f
12:50pm 7 13 mph 1011.9mb 28f
12:40pm 8 13 mph 1011.5mb 28f
12:30pm 7 14 mph 1011.5mb 27f
12:20pm 7 13 mph 1011.2mb 28f
12:10pm 7 13 mph 1010.8mb 28f
12:09pm 8 14 mph 1011.2mb 28f
12:00pm 8 13 mph 1010.8mb 28f
11:50am 6 14 mph 1010.8mb 28f
11:40am 8 11 mph 1010.5mb 28f
11:30am 7 11 mph 1010.5mb 28f
11:20am 7 13 mph 1010.2mb 28f
11:10am 8 11 mph 1010.2mb 27f
11:09am 8 13 mph 1010.2mb 27f
11:00am 8 11 mph 1010.2mb 27f
10:50am 9 11 mph 1009.8mb 27f
10:40am 7 13 mph 1009.8mb 27f
10:30am 7 13 mph 1009.8mb 27f
10:20am 6 10 mph 1009.8mb 26f
10:10am 8 11 mph 1009.5mb 26f
10:08am 8 14 mph 1009.5mb 26f
10:00am 7 11 mph 1009.5mb 26f
9:50am 8 13 mph 1009.1mb 26f
9:40am 7 13 mph 1009.1mb 26f
9:30am 8 13 mph 1008.8mb 26f
9:20am 8 14 mph 1008.5mb 26f
9:10am 8 13 mph 1008.5mb 26f
9:08am 9 13 mph 1008.1mb 26f
9:00am 9 13 mph 1008.1mb 26f
8:50am 7 11 mph 1007.8mb 26f
8:40am 7 13 mph 1007.8mb 26f
8:30am 8 13 mph 1007.5mb 26f
8:20am 7 13 mph 1007.5mb 25f
8:10am 8 13 mph 1007.5mb 25f
8:08am 8 15 mph 1007.1mb 25f
8:00am 6 11 mph 1007.1mb 25f
7:50am 5 8 mph 1007.1mb 25f
7:40am 6 10 mph 1006.8mb 25f
7:30am 6 8 mph 1006.4mb 25f
7:20am 8 15 mph 1006.4mb 25f
7:10am 8 15 mph 1006.1mb 25f
7:07am 8 16 mph 1006.1mb 25f
7:00am 8 15 mph 1005.8mb 25f
6:50am 9 16 mph 1005.4mb 25f
6:40am 11 16 mph 1005.4mb 25f
6:30am 7 11 mph 1005.1mb 25f
6:20am 8 10 mph 1005.1mb 25f
6:10am 10 16 mph 1004.4mb 25f
6:07am 9 17 mph 1004.4mb 25f
6:00am 9 14 mph 1004.4mb 25f
5:50am 9 15 mph 1004.1mb 25f
5:40am 10 17 mph 1004.1mb 25f
5:30am 7 11 mph 1003.7mb 25f
5:20am 8 14 mph 1003.4mb 26f
5:10am 9 11 mph 1003.4mb 26f
5:06am 7 14 mph 1003.4mb 26f
5:00am 8 11 mph 1003.4mb 26f
4:50am 7 9 mph 1003mb 26f
4:40am 7 13 mph 1002.7mb 26f
4:30am 7 13 mph 1002.7mb 26f
4:20am 9 13 mph 1002.4mb 26f
4:10am 11 18 mph 1002mb 26f
4:06am 13 18 mph 1002mb 26f
4:00am 13 16 mph 1002mb 26f
3:50am 8 17 mph 1001.7mb 26f
3:40am 7 14 mph 1001.7mb 26f
3:30am 7 10 mph 1001.4mb 26f
3:20am 5 10 mph 1001.4mb 26f
3:10am 10 13 mph 1001mb 26f
3:06am 10 16 mph 1001mb 26f
3:00am 10 15 mph 1001mb 26f
2:50am 13 16 mph 1001mb 27f
2:40am 7 9 mph 1000.7mb 27f
2:30am 7 9 mph 1000.7mb 27f
2:20am 3 13 mph 1000.3mb 27f
2:10am 10 14 mph 1000.3mb 27f
2:05am 8 20 mph 1000.3mb 27f
2:00am 8 13 mph 1000mb 27f
1:50am 9 11 mph 999.7mb 27f
1:40am 6 9 mph 999.7mb 27f
1:30am 9 15 mph 999.3mb 27f
1:20am 9 20 mph 999mb 27f
1:10am 10 13 mph 998.6mb 28f
1:05am 7 18 mph 998.6mb 28f
1:00am 5 11 mph 998.6mb 28f
12:50am 8 14 mph 998.3mb 28f
12:40am 6 9 mph 998mb 28f
12:30am 7 15 mph 998mb 28f
12:20am 10 18 mph 998mb 28f
12:10am 14 18 mph 997.6mb 28f
12:04am 8 18 mph 997.6mb 28f
12:00am 5 7 mph 997.6mb 28f
Mon 11/24 11:50pm 6 9 mph 997.3mb 28f
11:40pm 8 13 mph 997.3mb 28f
11:30pm 10 14 mph 997mb 28f
11:20pm 11 18 mph 996.6mb 28f
11:10pm 13 20 mph 996.3mb 28f
11:04pm 9 20 mph 996.3mb 28f
11:00pm 10 17 mph 996.3mb 28f
10:50pm 8 17 mph 995.9mb 29f
10:40pm 10 16 mph 995.6mb 29f
10:30pm 8 13 mph 995.6mb 29f
10:20pm 9 13 mph 995.3mb 29f
10:10pm 8 13 mph 994.9mb 29f
10:04pm 8 21 mph 994.9mb 29f
10:00pm 9 16 mph 994.6mb 29f
9:50pm 10 18 mph 994.6mb 29f
9:40pm 8 14 mph 994.2mb 29f
9:30pm 7 10 mph 993.9mb 29f
9:20pm 7 21 mph 993.9mb 29f
9:10pm 10 17 mph 993.6mb 30f
9:03pm 13 20 mph 993.6mb 30f
9:00pm 11 14 mph 993.2mb 30f
8:50pm 10 20 mph 992.9mb 30f
8:40pm 7 15 mph 992.9mb 30f
8:30pm 9 14 mph 992.6mb 30f
8:20pm 8 13 mph 992.6mb 30f
8:10pm 7 13 mph 992.2mb 31f
8:03pm 8 16 mph 992.2mb 31f
8:00pm 10 15 mph 991.9mb 31f
7:50pm 8 16 mph 991.5mb 31f
7:40pm 10 15 mph 991.5mb 31f
7:30pm 10 14 mph 991.2mb 31f
7:20pm 6 11 mph 990.9mb 31f
7:10pm 9 14 mph 990.5mb 32f
7:02pm 10 20 mph 990.5mb 32f
7:00pm 14 20 mph 990.5mb 32f
6:50pm 7 8 mph 990.2mb 32f
6:40pm 7 11 mph 989.8mb 32f
6:30pm 9 13 mph 989.8mb 33f
6:20pm 11 17 mph 989.5mb 33f
6:10pm 8 14 mph 989.2mb 33f
6:02pm 9 18 mph 988.8mb 33f
6:00pm 7 13 mph 988.8mb 33f
5:50pm 10 18 mph 988.5mb 33f
5:40pm 8 17 mph 988.5mb 33f
5:30pm 9 14 mph 988.1mb 33f
5:20pm 11 15 mph 987.8mb 34f
5:10pm 11 16 mph 987.8mb 34f
5:02pm 9 22 mph 987.5mb 34f
5:00pm 9 17 mph 987.5mb 34f
4:50pm 13 20 mph 987.1mb 34f
4:40pm 15 22 mph 986.8mb 34f
4:30pm 10 15 mph 986.8mb 34f
4:20pm 8 18 mph 986.5mb 34f
4:10pm 13 21 mph 986.1mb 35f
4:01pm 15 21 mph 986.1mb 35f
3:50pm 13 20 mph 985.8mb 35f
3:40pm 10 16 mph 985.8mb 35f
3:30pm 11 18 mph 985.4mb 35f
3:20pm 15 21 mph 985.4mb 35f
3:10pm 9 14 mph 985.1mb 35f
3:01pm 6 23 mph 986.5mb 35f
3:00pm 6 14 mph 985.1mb 35f
2:50pm 9 23 mph 984.8mb 35f
2:40pm 13 20 mph 984.4mb 36f
2:30pm 14 20 mph 984.1mb 36f
2:20pm 13 22 mph 983.7mb 36f
2:10pm 10 22 mph 983.7mb 36f
2:00pm 14 22 mph 983.4mb 36f
1:50pm 16 22 mph 983.4mb 36f
1:40pm 14 20 mph 983.4mb 37f
1:30pm 7 15 mph 983.4mb 37f
1:20pm 13 20 mph 983.1mb 37f
1:10pm 9 21 mph 982.7mb 37f
1:00pm 15 22 mph 982.4mb 38f
12:50pm 13 23 mph 982.1mb 38f
12:40pm 15 24 mph 981.7mb 38f
12:30pm 17 23 mph 981.7mb 39f
12:20pm 14 24 mph 981.7mb 40f
12:10pm 13 23 mph 981.4mb 41f
12:00pm 10 21 mph 981mb 42f
11:50am 13 21 mph 981mb 42f
11:40am 7 15 mph 981mb 43f
11:30am 7 11 mph 980.7mb 43f
11:20am 8 18 mph 980.4mb 43f
11:10am 9 11 mph 980.4mb 42f
11:00am 10 15 mph 980.7mb 42f
10:50am 7 11 mph 980.7mb 42f
10:30am 6 9 mph 980.7mb 41f
10:20am 6 9 mph 980.7mb 42f
10:10am 6 9 mph 980.7mb 42f
10:00am 6 11 mph 980.7mb 42f
9:50am 8 14 mph 980.7mb 41f
9:40am 7 10 mph 980.4mb 41f
9:30am 6 9 mph 980.4mb 41f
9:20am 6 9 mph 980mb 41f
9:10am 5 9 mph 980mb 41f
9:00am 5 8 mph 979.7mb 40f
8:50am 5 8 mph 979.7mb 40f
8:40am 5 7 mph 979.7mb 40f
8:30am 5 8 mph 979.7mb 40f
8:20am 3 7 mph 979.7mb 40f
8:10am 5 7 mph 979.3mb 41f
8:00am 3 6 mph 979.3mb 41f
7:50am 5 7 mph 979.3mb 41f
7:40am 3 6 mph 979mb 41f
7:30am 6 7 mph 979mb 41f
7:20am 6 8 mph 979mb 41f
7:10am 5 7 mph 979mb 41f